Time;durP1;ratioP1;P1;durP2;ratioP2;P2;SDS_P1;SDS_P2;PMS_P1;PMS_P2;Temp;Humidity;BMP_temperature;BMP_pressure;BME280_temperature;BME280_humidity;BME280_pressure;Samples;Min_cycle;Max_cycle;Signal;HPM_P1;HPM_P2
2023/12/17 00:01:29;;;;;;;24.53;18.97;;;11.60;98.20;;;13.32;71.29;103383.06;3082200;46;20518;-70
2023/12/17 00:03:58;;;;;;;24.43;19.47;;;11.70;98.10;;;13.35;71.25;103392.53;3082434;46;20561;-69
2023/12/17 00:06:26;;;;;;;22.43;18.50;;;11.70;98.10;;;13.35;71.26;103388.09;3081439;46;20429;-69
2023/12/17 00:08:55;;;;;;;19.80;17.67;;;11.70;98.00;;;13.37;71.42;103388.81;3081981;46;21070;-69
2023/12/17 00:11:23;;;;;;;20.73;16.87;;;11.70;98.00;;;13.38;71.02;103398.41;3082016;46;21074;-70
2023/12/17 00:13:51;;;;;;;19.10;16.73;;;11.70;97.90;;;13.38;71.27;103379.88;3082334;46;20452;-69
2023/12/17 00:16:20;;;;;;;20.87;17.00;;;11.70;97.90;;;13.39;71.06;103389.53;3082061;46;20427;-70
2023/12/17 00:18:48;;;;;;;20.60;17.13;;;11.70;97.90;;;13.39;70.81;103389.53;3082121;46;20460;-69
2023/12/17 00:21:17;;;;;;;17.07;15.23;;;11.70;97.80;;;13.37;70.74;103380.88;3082211;46;20428;-70
2023/12/17 00:23:45;;;;;;;18.37;14.10;;;11.80;97.70;;;13.39;70.93;103371.00;3081956;46;20545;-69
2023/12/17 00:26:14;;;;;;;21.13;14.83;;;11.80;97.50;;;13.41;70.48;103371.69;3081593;46;20439;-70
2023/12/17 00:28:42;;;;;;;20.33;16.83;;;11.80;97.60;;;13.43;70.86;103375.06;3081292;46;21125;-70
2023/12/17 00:31:10;;;;;;;21.07;16.60;;;11.80;97.60;;;13.46;70.67;103356.28;3081462;46;20556;-69
2023/12/17 00:33:39;;;;;;;20.73;15.83;;;11.80;97.50;;;13.48;70.42;103341.13;3082062;46;20972;-69
2023/12/17 00:36:08;;;;;;;20.23;15.97;;;11.80;97.50;;;13.50;70.13;103336.53;3081889;46;20439;-70
2023/12/17 00:38:36;;;;;;;19.83;15.23;;;11.80;97.10;;;13.51;70.09;103332.94;3081385;46;20558;-70
2023/12/17 00:41:05;;;;;;;20.10;15.73;;;11.90;97.20;;;13.52;69.49;103331.97;3080071;46;20571;-70
2023/12/17 00:43:35;;;;;;;16.37;14.10;;;11.90;97.10;;;13.53;69.84;103328.34;3081968;46;20509;-70
2023/12/17 00:46:03;;;;;;;16.77;13.50;;;11.90;96.90;;;13.54;69.41;103339.78;3081688;46;20524;-70
2023/12/17 00:48:32;;;;;;;18.00;14.07;;;11.90;96.90;;;13.56;69.81;103329.91;3081339;46;20478;-70
2023/12/17 00:51:00;;;;;;;17.03;13.50;;;11.90;96.90;;;13.58;69.14;103339.38;3081812;46;20444;-70
2023/12/17 00:53:29;;;;;;;15.20;12.70;;;11.90;96.90;;;13.58;69.43;103347.31;3081873;46;20504;-69
2023/12/17 00:55:57;;;;;;;13.97;11.93;;;11.90;96.70;;;13.61;69.41;103345.38;3081446;46;21015;-69
2023/12/17 00:58:25;;;;;;;14.67;12.30;;;11.90;96.70;;;13.64;69.20;103350.41;3081253;46;20443;-69
2023/12/17 01:00:54;;;;;;;12.83;10.73;;;11.90;96.50;;;13.66;68.97;103348.47;3081908;46;20542;-70
2023/12/17 01:03:22;;;;;;;12.97;11.10;;;12.00;96.50;;;13.69;68.71;103348.22;3081310;46;20436;-70
2023/12/17 01:05:51;;;;;;;17.87;10.37;;;12.00;96.30;;;13.69;68.47;103341.13;3081551;46;20455;-70
2023/12/17 01:08:19;;;;;;;13.83;10.93;;;12.00;96.30;;;13.70;68.23;103344.59;3081204;46;20439;-70
2023/12/17 01:10:48;;;;;;;10.80;9.70;;;12.00;96.10;;;13.70;67.79;103349.88;3081795;46;20578;-70
2023/12/17 01:13:17;;;;;;;11.80;10.03;;;12.00;96.00;;;13.70;67.88;103355.19;3081609;46;20443;-67
2023/12/17 01:15:45;;;;;;;12.30;9.77;;;12.00;95.80;;;13.70;67.87;103356.03;3081705;46;21032;-70
2023/12/17 01:18:13;;;;;;;12.00;9.97;;;12.00;95.80;;;13.69;67.73;103354.38;3081085;46;20464;-66
2023/12/17 01:20:42;;;;;;;12.83;9.00;;;12.00;95.70;;;13.71;67.37;103357.72;3081763;46;20515;-70
2023/12/17 01:23:11;;;;;;;11.53;8.90;;;12.00;95.60;;;13.71;67.00;103357.72;3081456;46;20494;-70
2023/12/17 01:25:40;;;;;;;11.90;9.10;;;12.10;95.40;;;13.73;66.84;103360.22;3081345;46;20502;-68
2023/12/17 01:28:08;;;;;;;9.70;7.80;;;12.10;95.50;;;13.73;66.77;103360.22;3080659;46;20439;-70
2023/12/17 01:30:36;;;;;;;12.73;8.53;;;12.10;95.80;;;13.73;66.77;103354.94;3081146;46;20485;-70
2023/12/17 01:33:05;;;;;;;11.63;8.73;;;12.10;95.40;;;13.74;66.38;103346.03;3081368;46;21004;-69
2023/12/17 01:35:33;;;;;;;9.37;8.20;;;12.10;95.30;;;13.76;66.66;103344.09;3081118;46;20432;-70
2023/12/17 01:38:02;;;;;;;8.73;7.83;;;12.10;95.20;;;13.77;66.45;103345.75;3080565;46;20534;-70
2023/12/17 01:40:31;;;;;;;10.07;8.13;;;12.10;95.10;;;13.77;66.06;103340.44;3081240;46;20968;-70
2023/12/17 01:43:03;;;;;;;8.63;7.40;;;12.10;95.00;;;13.75;65.90;103330.00;3079756;46;20674;-68
2023/12/17 01:45:31;;;;;;;12.57;8.43;;;12.10;94.90;;;13.74;65.94;103333.59;3080952;46;20542;-70
2023/12/17 01:48:01;;;;;;;8.93;7.63;;;12.10;94.90;;;13.75;65.71;103334.44;3080687;46;20556;-69
2023/12/17 01:50:30;;;;;;;9.43;7.73;;;12.10;94.90;;;13.75;65.84;103350.34;3080258;46;20431;-68
2023/12/17 01:52:59;;;;;;;10.13;8.60;;;12.10;94.80;;;13.74;65.69;103330.97;3080727;46;20566;-70
2023/12/17 01:55:28;;;;;;;8.57;7.73;;;12.10;94.70;;;13.73;65.78;103336.41;3080860;46;20541;-70
2023/12/17 01:57:57;;;;;;;10.60;8.33;;;12.10;94.70;;;13.74;65.35;103328.31;3080292;46;21024;-70
2023/12/17 02:00:26;;;;;;;10.13;8.00;;;12.10;94.70;;;13.74;65.43;103338.09;3080365;46;20558;-70
2023/12/17 02:02:54;;;;;;;10.27;8.10;;;12.10;94.70;;;13.74;65.77;103340.75;3080656;46;20520;-70
2023/12/17 02:05:23;;;;;;;8.47;7.63;;;12.10;94.70;;;13.74;65.25;103330.16;3081289;46;21025;-70
2023/12/17 02:07:51;;;;;;;11.33;8.03;;;12.10;94.60;;;13.74;65.09;103330.97;3080228;46;20480;-69
2023/12/17 02:10:20;;;;;;;9.27;8.17;;;12.10;94.60;;;13.73;65.53;103339.03;3080566;46;20439;-70
2023/12/17 02:12:48;;;;;;;8.23;7.40;;;12.10;94.60;;;13.74;65.46;103330.97;3080580;46;20434;-70
2023/12/17 02:15:17;;;;;;;9.13;7.63;;;12.10;94.60;;;13.75;65.35;103337.94;3080985;46;20572;-69
2023/12/17 02:17:45;;;;;;;9.83;7.00;;;12.10;94.60;;;13.76;65.43;103329.06;3080294;46;20464;-70
2023/12/17 02:20:14;;;;;;;11.87;7.27;;;12.10;94.60;;;13.75;65.40;103326.50;3081276;46;21220;-69
2023/12/17 02:22:44;;;;;;;8.83;7.47;;;12.10;94.60;;;13.75;65.03;103326.50;3080716;46;20455;-70
2023/12/17 02:25:12;;;;;;;8.83;7.20;;;12.10;94.50;;;13.75;64.94;103321.22;3080931;46;20523;-70
2023/12/17 02:27:43;;;;;;;10.50;7.60;;;12.10;94.50;;;13.75;65.35;103315.94;3080357;46;20538;-67
2023/12/17 02:30:12;;;;;;;8.73;7.57;;;12.10;94.50;;;13.75;65.03;103305.34;3080987;46;20545;-69
2023/12/17 02:32:40;;;;;;;8.67;7.67;;;12.10;94.60;;;13.75;65.08;103315.94;3080813;46;20636;-70
2023/12/17 02:35:08;;;;;;;7.63;6.83;;;12.10;94.60;;;13.75;65.36;103310.63;3080767;46;20443;-70
2023/12/17 02:37:37;;;;;;;10.23;7.80;;;12.10;94.50;;;13.75;65.01;103303.53;3080116;46;20584;-69
2023/12/17 02:40:09;;;;;;;10.93;7.97;;;12.10;94.50;;;13.77;64.99;103311.34;3080701;46;20515;-70
2023/12/17 02:42:37;;;;;;;12.63;7.50;;;12.10;94.60;;;13.77;65.36;103313.97;3080004;46;20431;-70
2023/12/17 02:45:07;;;;;;;9.57;7.70;;;12.10;94.50;;;13.77;64.96;103308.69;3080787;46;20544;-70
2023/12/17 02:47:35;;;;;;;9.63;7.97;;;12.10;94.50;;;13.77;64.95;103309.53;3080423;46;20450;-70
2023/12/17 02:50:06;;;;;;;12.17;7.60;;;12.10;94.50;;;13.77;65.09;103303.38;3081102;46;20997;-69
2023/12/17 02:52:34;;;;;;;8.33;7.23;;;12.10;94.50;;;13.78;64.71;103305.09;3082683;46;21033;-70
2023/12/17 02:55:03;;;;;;;8.97;6.93;;;12.10;94.50;;;13.78;64.84;103310.38;3083141;46;20426;-69
2023/12/17 02:57:31;;;;;;;8.70;7.20;;;12.10;94.50;;;13.78;64.99;103315.66;3082337;46;20555;-70
2023/12/17 03:00:00;;;;;;;8.77;7.33;;;12.10;94.40;;;13.79;65.20;103306.75;3083064;46;20505;-68
2023/12/17 03:02:28;;;;;;;7.77;7.07;;;12.10;94.50;;;13.79;65.14;103306.75;3083008;46;21012;-70
2023/12/17 03:04:58;;;;;;;8.03;7.23;;;12.10;94.40;;;13.79;64.59;103312.03;3083146;46;21082;-69
2023/12/17 03:07:27;;;;;;;9.13;7.33;;;12.10;94.40;;;13.75;64.55;103294.75;3082115;46;20576;-70
2023/12/17 03:09:55;;;;;;;7.70;6.23;;;12.10;94.40;;;13.76;64.66;103305.22;3082971;46;21037;-70
2023/12/17 03:12:24;;;;;;;7.33;6.63;;;12.10;94.40;;;13.77;64.99;103298.09;3082814;46;20443;-69
2023/12/17 03:14:52;;;;;;;8.80;6.90;;;12.10;94.30;;;13.76;65.00;103301.72;3083069;46;20516;-70
2023/12/17 03:17:21;;;;;;;7.80;6.17;;;12.10;94.30;;;13.76;64.78;103296.44;3082594;46;20443;-69
2023/12/17 03:19:49;;;;;;;8.23;6.47;;;12.10;94.30;;;13.74;64.62;103296.56;3082731;46;20430;-68
2023/12/17 03:22:18;;;;;;;11.27;6.80;;;12.10;94.20;;;13.74;64.61;103293.09;3082736;46;20493;-67
2023/12/17 03:24:46;;;;;;;6.87;6.00;;;12.10;94.20;;;13.76;64.37;103280.56;3082423;46;20462;-70
2023/12/17 03:27:14;;;;;;;8.13;6.57;;;12.10;94.20;;;13.76;64.39;103286.69;3082313;46;20584;-70
2023/12/17 03:29:43;;;;;;;7.53;6.57;;;12.10;94.20;;;13.77;64.43;103282.22;3082705;46;20522;-70
2023/12/17 03:32:11;;;;;;;7.33;6.50;;;12.10;94.20;;;13.76;64.41;103268.16;3082960;46;20459;-70
2023/12/17 03:34:39;;;;;;;10.40;6.77;;;12.10;94.50;;;13.76;64.23;103272.63;3082358;46;20439;-70
2023/12/17 03:37:08;;;;;;;6.20;5.60;;;12.10;94.10;;;13.74;64.23;103277.22;3082269;46;20504;-70
2023/12/17 03:39:36;;;;;;;6.67;5.97;;;12.10;94.00;;;13.75;64.33;103268.28;3082577;46;20452;-70
2023/12/17 03:42:05;;;;;;;8.20;6.27;;;12.10;94.00;;;13.76;63.99;103269.97;3081659;46;21080;-70
2023/12/17 03:44:33;;;;;;;10.33;6.03;;;12.10;94.00;;;13.77;64.56;103271.63;3082737;46;20450;-69
2023/12/17 03:47:02;;;;;;;7.73;6.07;;;12.10;94.00;;;13.78;64.09;103275.97;3082181;46;20493;-69
2023/12/17 03:49:30;;;;;;;8.67;6.13;;;12.10;94.00;;;13.80;64.27;103276.66;3082508;46;20452;-70
2023/12/17 03:52:02;;;;;;;7.27;6.20;;;12.10;94.00;;;13.81;64.08;103278.34;3082218;46;20448;-69
2023/12/17 03:54:31;;;;;;;7.67;6.53;;;12.10;94.00;;;13.82;63.90;103259.69;3081737;46;20427;-70
2023/12/17 03:56:59;;;;;;;8.57;6.40;;;12.10;93.90;;;13.82;64.23;103249.09;3082360;46;20439;-69
2023/12/17 03:59:27;;;;;;;7.23;6.30;;;12.20;94.00;;;13.83;64.08;103252.59;3082684;46;20435;-69
2023/12/17 04:01:58;;;;;;;10.17;6.93;;;12.20;93.90;;;13.84;63.93;103254.25;3082798;46;20427;-70
2023/12/17 04:04:26;;;;;;;6.47;5.50;;;12.20;93.90;;;13.84;64.17;103246.28;3082476;46;20428;-70
2023/12/17 04:06:54;;;;;;;6.90;5.90;;;12.20;93.90;;;13.82;64.14;103242.94;3081491;46;20443;-69
2023/12/17 04:09:23;;;;;;;10.67;6.40;;;12.20;93.90;;;13.81;63.92;103250.03;3082425;46;21024;-69
2023/12/17 04:11:51;;;;;;;8.70;6.63;;;12.20;93.90;;;13.80;63.96;103251.03;3082610;46;20432;-70
2023/12/17 04:14:20;;;;;;;10.10;6.00;;;12.10;93.90;;;13.79;63.95;103270.53;3082444;46;20593;-70
2023/12/17 04:16:49;;;;;;;9.73;6.67;;;12.20;93.90;;;13.77;63.91;103264.53;3082040;46;20489;-70
2023/12/17 04:19:17;;;;;;;8.47;6.10;;;12.10;93.80;;;13.78;64.12;103257.44;3082510;46;20453;-70
2023/12/17 04:21:46;;;;;;;6.93;6.00;;;12.10;93.90;;;13.78;64.24;103257.44;3082203;46;20486;-70
2023/12/17 04:24:15;;;;;;;7.20;6.00;;;12.20;93.90;;;13.79;64.28;103264.38;3082462;46;20458;-69
2023/12/17 04:26:43;;;;;;;11.43;6.37;;;12.10;93.90;;;13.80;63.86;103260.78;3081997;46;21040;-69
2023/12/17 04:29:11;;;;;;;7.30;5.67;;;12.20;94.00;;;13.80;64.02;103260.78;3082597;46;20439;-69
2023/12/17 04:31:40;;;;;;;6.57;5.90;;;12.10;93.90;;;13.78;63.82;103246.84;3081493;46;20432;-69
2023/12/17 04:34:10;;;;;;;8.20;6.03;;;12.20;93.90;;;13.79;63.85;103248.50;3082205;46;20456;-70
2023/12/17 04:36:41;;;;;;;8.00;6.17;;;12.10;93.90;;;13.79;64.26;103256.44;3082255;46;20518;-70
2023/12/17 04:39:09;;;;;;;7.33;6.63;;;12.10;93.90;;;13.79;64.16;103253.78;3081368;46;20537;-71
2023/12/17 04:41:39;;;;;;;7.53;6.77;;;12.10;93.90;;;13.79;64.26;103259.09;3081643;46;20914;-69
2023/12/17 04:44:08;;;;;;;7.63;6.13;;;12.20;93.90;;;13.79;64.11;103259.09;3082470;46;20507;-70
2023/12/17 04:46:38;;;;;;;7.73;6.67;;;12.10;93.80;;;13.79;63.76;103261.75;3082038;46;20431;-69
2023/12/17 04:49:06;;;;;;;7.43;6.63;;;12.20;93.90;;;13.78;64.28;103262.72;3081426;46;20444;-70
2023/12/17 04:51:35;;;;;;;7.07;6.37;;;12.20;93.90;;;13.78;64.00;103274.16;3082349;46;20439;-70
2023/12/17 04:54:03;;;;;;;7.17;6.47;;;12.20;93.90;;;13.79;64.07;103269.69;3081725;46;20457;-69
2023/12/17 04:56:32;;;;;;;9.00;6.73;;;12.20;94.00;;;13.82;63.88;103264.13;3081664;46;20455;-69
2023/12/17 04:59:00;;;;;;;8.73;6.63;;;12.20;93.90;;;13.83;63.95;103261.38;3081871;46;20546;-70
2023/12/17 05:01:28;;;;;;;8.70;7.23;;;12.20;93.90;;;13.83;64.12;103252.59;3082157;46;20428;-69
2023/12/17 05:03:57;;;;;;;9.73;6.63;;;12.20;93.90;;;13.83;64.02;103255.22;3082097;46;20451;-69
2023/12/17 05:06:25;;;;;;;8.13;7.17;;;12.20;94.00;;;13.83;64.01;103250.78;3081582;46;20432;-70
2023/12/17 05:08:54;;;;;;;11.67;7.50;;;12.20;93.90;;;13.82;64.04;103245.59;3081723;46;20509;-70
2023/12/17 05:11:22;;;;;;;10.27;6.37;;;12.20;93.90;;;13.81;63.71;103243.94;3081807;46;20425;-69
2023/12/17 05:13:51;;;;;;;9.40;6.73;;;12.20;93.80;;;13.80;63.99;103244.91;3081349;46;20456;-70
2023/12/17 05:16:19;;;;;;;8.63;7.70;;;12.20;93.80;;;13.81;64.10;103241.28;3082417;46;21014;-69
2023/12/17 05:18:48;;;;;;;10.83;6.80;;;12.20;93.90;;;13.81;63.89;103246.59;3081744;46;20438;-70
2023/12/17 05:21:16;;;;;;;11.07;7.37;;;12.20;93.90;;;13.81;64.25;103236.81;3081682;46;20435;-69
2023/12/17 05:23:47;;;;;;;10.60;7.13;;;12.20;93.90;;;13.82;64.21;103243.78;3081600;46;20505;-70
2023/12/17 05:26:15;;;;;;;8.00;6.97;;;12.20;93.90;;;13.84;64.18;103246.28;3081028;46;21131;-69
2023/12/17 05:28:44;;;;;;;7.93;7.20;;;12.20;93.90;;;13.85;63.96;103242.69;3081116;46;20444;-70
2023/12/17 05:31:12;;;;;;;9.40;8.13;;;12.20;93.90;;;13.85;63.79;103253.28;3081582;46;20431;-70
2023/12/17 05:33:41;;;;;;;8.70;7.10;;;12.20;93.90;;;13.84;63.74;103267.47;3081473;46;20430;-71
2023/12/17 05:36:10;;;;;;;8.37;6.93;;;12.20;93.80;;;13.84;63.92;103256.88;3081714;46;20434;-70
2023/12/17 05:38:38;;;;;;;7.27;6.57;;;12.20;93.80;;;13.85;63.96;103261.22;3081071;46;20512;-70
2023/12/17 05:41:06;;;;;;;10.43;7.20;;;12.20;93.80;;;13.84;63.73;103267.47;3080704;46;21032;-70
2023/12/17 05:43:35;;;;;;;8.70;6.57;;;12.20;93.80;;;13.86;63.80;103270.84;3081846;46;20490;-69
2023/12/17 05:46:04;;;;;;;8.60;7.10;;;12.20;93.80;;;13.83;63.43;103271.13;3081170;46;20447;-70
2023/12/17 05:48:32;;;;;;;8.57;7.03;;;12.20;93.70;;;13.82;63.52;103269.41;3080988;46;21004;-70
2023/12/17 05:51:01;;;;;;;9.43;7.13;;;12.20;93.70;;;13.82;63.80;103266.78;3081142;46;20507;-69
2023/12/17 05:53:29;;;;;;;7.83;7.03;;;12.20;93.70;;;13.83;64.06;103273.75;3081344;46;20427;-69
2023/12/17 05:56:08;;;;;;;8.57;6.57;;;12.20;93.70;;;13.83;63.94;103277.25;3081259;46;20451;-70
2023/12/17 05:58:37;;;;;;;9.13;6.77;;;12.20;93.70;;;13.84;63.48;103280.72;3080696;46;20588;-70
2023/12/17 06:01:05;;;;;;;9.57;6.63;;;12.20;93.60;;;13.84;64.00;103270.13;3082051;46;20484;-70
2023/12/17 06:03:36;;;;;;;7.03;6.33;;;12.20;93.70;;;13.82;63.73;103264.13;3081163;46;20462;-70
2023/12/17 06:06:06;;;;;;;7.23;6.50;;;12.20;93.70;;;13.85;63.83;103270.00;3081350;46;20444;-70
2023/12/17 06:08:35;;;;;;;12.00;6.80;;;12.20;93.70;;;13.86;63.85;103276.16;3081128;46;20521;-68
2023/12/17 06:11:04;;;;;;;8.30;6.70;;;12.20;93.70;;;13.84;63.51;103265.66;3081540;46;20461;-69
2023/12/17 06:13:33;;;;;;;11.17;7.40;;;12.20;93.70;;;13.84;63.30;103262.19;3081185;46;20455;-68
2023/12/17 06:16:03;;;;;;;9.23;7.23;;;12.20;93.60;;;13.84;63.72;103267.47;3080971;46;20432;-69
2023/12/17 06:18:32;;;;;;;9.53;6.83;;;12.20;93.60;;;13.82;63.33;103264.13;3080703;46;20460;-71
2023/12/17 06:21:01;;;;;;;9.80;7.30;;;12.20;93.60;;;13.82;63.49;103269.41;3081420;46;20460;-70
2023/12/17 06:23:31;;;;;;;9.83;6.50;;;12.20;93.60;;;13.83;63.79;103265.81;3081126;46;21024;-71
2023/12/17 06:26:04;;;;;;;9.03;6.27;;;12.20;93.60;;;13.83;63.56;103263.16;3082910;46;20431;-70
2023/12/17 06:28:32;;;;;;;9.60;6.90;;;12.20;93.60;;;13.84;63.66;103270.13;3083093;46;20457;-70
2023/12/17 06:31:01;;;;;;;8.23;6.30;;;12.20;93.60;;;13.83;63.44;103265.81;3083428;46;20431;-69
2023/12/17 06:33:29;;;;;;;9.40;8.07;;;12.20;93.60;;;13.84;63.80;103264.81;3083614;46;20460;-70
2023/12/17 06:35:58;;;;;;;13.17;7.30;;;12.20;93.60;;;13.83;63.52;103265.81;3083737;46;20499;-70
2023/12/17 06:38:26;;;;;;;10.00;7.47;;;12.20;93.60;;;13.84;63.69;103264.81;3083320;46;20928;-69
2023/12/17 06:40:55;;;;;;;9.20;7.60;;;12.20;93.60;;;13.81;63.43;103262.47;3082695;46;20486;-70
2023/12/17 06:43:24;;;;;;;10.10;7.43;;;12.20;93.60;;;13.80;63.71;103274.03;3083389;46;20531;-70
2023/12/17 06:45:54;;;;;;;9.90;7.60;;;12.20;93.60;;;13.78;63.54;103260.09;3083039;46;20427;-69
2023/12/17 06:48:22;;;;;;;8.60;7.57;;;12.20;93.60;;;13.78;63.32;103262.72;3082306;46;20994;-70
2023/12/17 06:50:51;;;;;;;10.00;8.00;;;12.20;93.60;;;13.78;63.58;103265.38;3083305;46;21068;-70
2023/12/17 06:53:19;;;;;;;7.57;6.77;;;12.20;93.60;;;13.80;63.83;103263.44;3083271;46;20431;-70
2023/12/17 06:55:48;;;;;;;9.47;7.63;;;12.20;93.60;;;13.80;63.77;103274.03;3083590;46;20432;-70
2023/12/17 06:58:16;;;;;;;11.30;8.00;;;12.20;93.60;;;13.78;63.71;103271.50;3082867;46;20580;-69
2023/12/17 07:00:45;;;;;;;8.83;7.90;;;12.20;93.60;;;13.79;63.63;103267.03;3082923;46;20427;-69
2023/12/17 07:03:18;;;;;;;9.63;8.20;;;12.20;93.60;;;13.79;63.70;103277.63;3083266;46;20487;-70
2023/12/17 07:05:47;;;;;;;9.10;8.20;;;12.20;93.60;;;13.73;63.33;103281.66;3082929;46;20446;-70
2023/12/17 07:08:15;;;;;;;9.00;8.10;;;12.20;93.50;;;13.74;63.58;103278.03;3082802;46;20525;-68
2023/12/17 07:10:45;;;;;;;11.97;8.77;;;12.20;93.60;;;13.75;63.85;103279.72;3083308;46;20564;-70
2023/12/17 07:13:13;;;;;;;12.20;8.87;;;12.10;93.50;;;13.77;63.82;103282.22;3083349;46;20434;-70
2023/12/17 07:15:43;;;;;;;8.77;7.70;;;12.10;93.60;;;13.77;63.34;103282.22;3082867;46;20427;-70
2023/12/17 07:18:12;;;;;;;12.93;8.70;;;12.10;93.60;;;13.77;63.29;103277.75;3082428;46;20440;-70
2023/12/17 07:20:40;;;;;;;11.07;7.77;;;12.10;93.50;;;13.76;63.79;103273.47;3083053;46;21114;-70
2023/12/17 07:23:09;;;;;;;9.17;8.30;;;12.10;93.50;;;13.77;63.72;103276.91;3083387;46;20455;-69
2023/12/17 07:25:37;;;;;;;10.80;7.87;;;12.10;93.50;;;13.77;63.25;103266.34;3083359;46;20474;-70
2023/12/17 07:28:05;;;;;;;8.33;7.47;;;12.10;93.50;;;13.77;63.67;103266.34;3082400;46;20485;-70
2023/12/17 07:30:35;;;;;;;9.27;7.73;;;12.10;93.50;;;13.76;63.50;103264.69;3082677;46;21076;-70
2023/12/17 07:33:04;;;;;;;7.97;7.20;;;12.10;93.50;;;13.77;63.58;103266.34;3082917;46;20447;-70
2023/12/17 07:35:33;;;;;;;8.50;7.37;;;12.10;93.50;;;13.76;63.19;103254.09;3083303;46;20479;-70
2023/12/17 07:38:01;;;;;;;8.97;7.17;;;12.10;93.50;;;13.75;63.30;103257.69;3082419;46;20435;-69
2023/12/17 07:40:29;;;;;;;8.97;8.07;;;12.10;93.40;;;13.74;63.47;103253.38;3082673;46;20557;-70
2023/12/17 07:42:58;;;;;;;11.73;7.83;;;12.10;93.50;;;13.74;63.20;103256.84;3081516;46;20432;-69
2023/12/17 07:45:26;;;;;;;9.10;8.20;;;12.10;93.50;;;13.74;63.64;103258.69;3082001;46;20431;-69
2023/12/17 07:47:54;;;;;;;8.67;7.50;;;12.10;93.50;;;13.73;63.41;103259.63;3081943;46;20465;-68
2023/12/17 07:50:23;;;;;;;9.07;7.33;;;12.10;93.40;;;13.70;63.48;103246.66;3082282;46;20450;-69
2023/12/17 07:52:51;;;;;;;12.17;7.73;;;12.10;93.40;;;13.66;63.22;103259.34;3082760;46;20447;-70
2023/12/17 07:55:20;;;;;;;9.33;7.40;;;12.10;93.40;;;13.67;63.74;103254.88;3082414;46;21019;-69
2023/12/17 07:57:48;;;;;;;10.30;8.10;;;12.10;93.40;;;13.69;63.58;103258.25;3082077;46;20440;-69
2023/12/17 08:00:17;;;;;;;8.70;7.07;;;12.10;93.40;;;13.71;63.40;103251.00;3082384;46;20426;-69
2023/12/17 08:02:46;;;;;;;10.07;7.50;;;12.10;93.40;;;13.71;63.35;103251.84;3082808;46;20514;-70
2023/12/17 08:05:14;;;;;;;8.30;7.10;;;12.10;93.40;;;13.71;63.36;103251.84;3082726;46;20433;-70
2023/12/17 08:07:43;;;;;;;8.93;7.83;;;12.10;93.40;;;13.71;63.25;103251.00;3081902;46;21178;-70
2023/12/17 08:10:11;;;;;;;10.90;7.60;;;12.00;93.30;;;13.71;62.92;103249.19;3082103;46;21122;-71
2023/12/17 08:12:39;;;;;;;9.03;7.23;;;12.10;93.30;;;13.69;62.98;103248.50;3082509;46;21397;-70
2023/12/17 08:15:08;;;;;;;10.00;7.80;;;12.10;93.30;;;13.67;63.00;103239.81;3082210;46;20573;-69
2023/12/17 08:17:37;;;;;;;11.87;7.70;;;12.10;93.20;;;13.66;63.36;103237.31;3081876;46;21114;-70
2023/12/17 08:20:07;;;;;;;8.40;7.60;;;12.10;93.30;;;13.67;63.22;103231.06;3081607;46;20514;-70
2023/12/17 08:22:36;;;;;;;8.53;7.73;;;12.10;93.30;;;13.66;63.20;103232.03;3082421;46;20481;-69
2023/12/17 08:25:04;;;;;;;8.10;7.30;;;12.10;93.30;;;13.65;63.22;103225.03;3082175;46;20554;-70
2023/12/17 08:27:33;;;;;;;8.57;7.77;;;12.00;93.20;;;13.65;63.22;103219.75;3082191;46;20504;-69
2023/12/17 08:30:01;;;;;;;8.13;7.33;;;12.00;93.20;;;13.65;63.16;103233.81;3081990;46;20480;-70
2023/12/17 08:32:32;;;;;;;10.83;7.40;;;12.00;93.20;;;13.65;63.39;103236.47;3082279;46;20550;-70
2023/12/17 08:35:01;;;;;;;8.83;7.93;;;12.00;93.20;;;13.67;63.22;103233.72;3081858;46;20423;-70
2023/12/17 08:37:30;;;;;;;8.67;7.77;;;12.00;93.20;;;13.66;62.86;103227.56;3081503;46;20464;-70
2023/12/17 08:39:58;;;;;;;8.40;7.60;;;12.00;93.10;;;13.68;62.93;103235.38;3081983;46;20433;-68
2023/12/17 08:42:26;;;;;;;8.70;7.70;;;12.00;93.50;;;13.68;63.15;103236.22;3081127;46;20455;-69
2023/12/17 08:44:55;;;;;;;8.37;7.53;;;12.00;93.20;;;13.70;63.27;103233.44;3081804;46;20520;-69
2023/12/17 08:47:24;;;;;;;9.17;8.23;;;12.00;93.20;;;13.71;63.15;103227.19;3081103;46;20444;-70
2023/12/17 08:49:52;;;;;;;10.97;8.13;;;12.00;93.30;;;13.72;63.21;103232.31;3081746;46;21140;-69
2023/12/17 08:52:21;;;;;;;10.93;9.00;;;12.10;93.30;;;13.71;62.56;103229.81;3081788;46;21013;-69
2023/12/17 08:54:49;;;;;;;9.77;8.87;;;12.10;93.20;;;13.69;62.69;103231.78;3081722;46;20505;-69
2023/12/17 08:57:17;;;;;;;9.33;8.43;;;12.00;93.10;;;13.67;62.81;103239.00;3081347;46;20459;-70
2023/12/17 08:59:46;;;;;;;11.20;9.00;;;12.10;93.10;;;13.68;62.63;103232.72;3082251;46;21005;-70
2023/12/17 09:02:14;;;;;;;9.73;8.80;;;12.10;93.10;;;13.71;62.65;103235.97;3082009;46;20519;-70
2023/12/17 09:04:43;;;;;;;10.30;9.40;;;12.10;93.10;;;13.74;62.47;103242.78;3081830;46;20543;-70
2023/12/17 09:07:11;;;;;;;10.83;9.73;;;12.10;93.10;;;13.76;62.42;103240.84;3080304;46;20465;-70
2023/12/17 09:09:40;;;;;;;10.10;9.10;;;12.10;93.10;;;13.76;62.21;103239.06;3081718;46;20469;-70
2023/12/17 09:12:09;;;;;;;9.17;8.30;;;12.10;93.00;;;13.75;62.52;103240.00;3081813;46;21108;-70
2023/12/17 09:14:37;;;;;;;11.33;10.20;;;12.10;92.90;;;13.76;62.69;103232.91;3081840;46;20439;-70
2023/12/17 09:17:05;;;;;;;9.00;8.10;;;12.10;92.80;;;13.77;62.48;103239.88;3081262;46;20512;-68
2023/12/17 09:19:35;;;;;;;9.60;8.80;;;12.10;92.90;;;13.77;62.24;103229.28;3081712;46;20553;-70
2023/12/17 09:22:03;;;;;;;9.23;8.17;;;12.10;92.90;;;13.79;62.29;103227.31;3081900;46;20423;-69
2023/12/17 09:24:32;;;;;;;9.13;8.23;;;12.10;92.90;;;13.80;61.90;103229.00;3081354;46;20451;-70
2023/12/17 09:27:03;;;;;;;7.87;7.17;;;12.10;92.80;;;13.81;62.17;103228.06;3081662;46;20456;-70
2023/12/17 09:29:32;;;;;;;8.13;7.33;;;12.10;92.80;;;13.75;61.93;103220.63;3081672;46;21008;-68
2023/12/17 09:32:01;;;;;;;7.80;7.10;;;12.10;92.80;;;13.75;62.40;103213.53;3081427;46;20444;-69
2023/12/17 09:34:31;;;;;;;7.10;6.40;;;12.10;92.80;;;13.78;62.31;103215.09;3081736;46;20516;-69
2023/12/17 09:37:00;;;;;;;9.27;6.80;;;12.10;92.80;;;13.77;62.19;103216.88;3081328;46;20495;-69
2023/12/17 09:39:28;;;;;;;8.83;6.43;;;12.10;92.80;;;13.78;62.21;103221.22;3081195;46;20433;-68
2023/12/17 09:41:57;;;;;;;7.83;5.67;;;12.10;92.80;;;13.80;62.27;103221.06;3080721;46;20520;-70
2023/12/17 09:44:27;;;;;;;8.10;5.60;;;12.10;92.90;;;13.82;62.49;103224.41;3080497;46;20969;-70
2023/12/17 09:46:55;;;;;;;7.17;5.77;;;12.10;92.90;;;13.86;62.29;103233.78;3080058;46;20451;-70
2023/12/17 09:49:23;;;;;;;7.87;6.13;;;12.10;92.90;;;13.88;62.02;103231.84;3081065;46;20427;-69
2023/12/17 09:52:06;;;;;;;7.50;6.27;;;12.20;93.00;;;13.88;62.25;103237.13;3081211;46;20517;-70
2023/12/17 09:54:35;;;;;;;9.23;6.20;;;12.20;93.00;;;13.91;62.14;103232.41;3080896;46;20487;-69
2023/12/17 09:57:06;;;;;;;6.87;5.77;;;12.20;92.90;;;13.94;61.99;103247.19;3080869;46;20439;-70
2023/12/17 09:59:35;;;;;;;8.57;6.47;;;12.20;92.90;;;13.94;62.01;103240.06;3080907;46;21112;-69
2023/12/17 10:02:03;;;;;;;6.20;5.60;;;12.20;92.90;;;13.95;62.01;103243.56;3080444;46;20456;-69
2023/12/17 10:04:32;;;;;;;6.23;5.63;;;12.20;92.90;;;13.98;62.27;103240.63;3081372;46;21093;-70
2023/12/17 10:07:00;;;;;;;7.57;6.67;;;12.30;93.00;;;14.01;62.17;103237.72;3080604;46;20442;-70
2023/12/17 10:09:31;;;;;;;9.70;6.80;;;12.30;92.90;;;14.02;61.85;103242.06;3081532;46;20478;-70
2023/12/17 10:11:59;;;;;;;7.37;6.27;;;12.30;93.00;;;14.04;61.88;103240.94;3080907;46;20432;-70
2023/12/17 10:14:30;;;;;;;8.80;6.07;;;12.30;93.00;;;14.06;61.98;103232.84;3081018;46;21091;-70
2023/12/17 10:16:59;;;;;;;9.13;6.50;;;12.30;92.90;;;14.06;61.92;103238.16;3080401;46;20471;-69